Aviation Digital Data Service (ADDS)

Output produced by METARs form (0908 UTC 02 September 2014)
found at http://www.aviationweather.gov/adds/metars/
 
KATL 020748Z 0208/0312 VRB03KT P6SM FEW150 SCT250 
     FM021400 24004KT P6SM SCT035 SCT150 
     FM021800 27006KT P6SM SCT050 SCT150 
     PROB30 0219/0223 VRB15G30KT 5SM TSRA BKN045CB 
     FM030100 VRB03KT P6SM FEW050 BKN120